Rv Quinn Delta — WDC4115 — position and weather

sailwx.info

Track history (hours):
 
Tides and Currents Weather Stations Pressure Air Temp Water Temp Dewpoint Dewpoint Depression Visibility Wind Speed Wind Dir Waves Ship Positions

Rv Quinn Delta

Owner: GREGG DRILLING & TESTING, INC., SIGNAL HILL, CA. More information available from US FCC via Universal Licensing System and Coast Guard Vessel Documentation Center.

Last reported at 2018-Jan-19 00:06 UTC. Time now 2018-Jan-19 09:25 UTC.
Position N 33°43' W 118°17'.

Length 31 m; draft 2 m.

Type: Other ship. MMSI: 367019310.

Date/timePositionNaut miles runAvg speedWind from/ knotsBaromVisibWave heightAir tempDewpointWater temp
2018-Jan-19 00:06N 33°43' W 118°17'0 0.0
2018-Jan-19 00:00N 33°43' W 118°17'0 0.0
2018-Jan-18 23:30N 33°43' W 118°17'0 0.0
2018-Jan-18 23:00N 33°43' W 118°17'0 0.0
2018-Jan-18 22:30N 33°43' W 118°17'0 0.0
2018-Jan-18 21:30N 33°43' W 118°17'0 0.0
2018-Jan-18 21:00N 33°43' W 118°17'4 1.6
2018-Jan-18 18:39N 33°43' W 118°21'1 6.6
2018-Jan-18 18:29N 33°43' W 118°23'4 7.3
2018-Jan-18 17:59N 33°44' W 118°27'3 7.1
2018-Jan-18 17:30N 33°46' W 118°30'4 7.2
2018-Jan-18 16:53N 33°48' W 118°35'3 7.2
2018-Jan-18 16:29N 33°50' W 118°38'4 7.0
2018-Jan-18 15:59N 33°51' W 118°42'3 7.0
2018-Jan-18 15:30N 33°53' W 118°45'3 6.9
2018-Jan-18 15:00N 33°54' W 118°49'4 7.2
2018-Jan-18 14:30N 33°56' W 118°53'4 6.9
2018-Jan-18 13:55N 33°58' W 118°57'3 6.9
2018-Jan-18 13:26N 33°60' W 119°01'3 6.9
2018-Jan-18 13:00N 34°01' W 119°04'4 7.2
2018-Jan-18 12:30N 34°03' W 119°08'4 7.1
2018-Jan-18 12:00N 34°04' W 119°11'4 7.1
2018-Jan-18 11:30N 34°06' W 119°15'5 7.0
2018-Jan-18 10:49N 34°08' W 119°21'2 7.1
2018-Jan-18 10:28N 34°08' W 119°24'3 7.0
2018-Jan-18 10:00N 34°09' W 119°27'3 6.7
2018-Jan-18 09:30N 34°10' W 119°31'3 6.5
2018-Jan-18 09:00N 34°11' W 119°35'3 6.3
2018-Jan-18 08:27N 34°12' W 119°39'3 6.2
2018-Jan-18 08:00N 34°13' W 119°42'4 6.4
2018-Jan-18 07:22N 34°15' W 119°47'3 6.4
2018-Jan-18 06:58N 34°16' W 119°49'3 6.6
2018-Jan-18 06:27N 34°17' W 119°53'3 6.8
2018-Jan-18 05:59N 34°18' W 119°57'3 6.6
2018-Jan-18 05:30N 34°19' W 120°01'4 6.4
2018-Jan-18 04:55N 34°20' W 120°05'3 6.2
2018-Jan-18 04:30N 34°21' W 120°08'3 6.2
2018-Jan-18 03:58N 34°22' W 120°12'3 6.5
2018-Jan-18 03:29N 34°22' W 120°16'3 6.4
2018-Jan-18 02:59N 34°23' W 120°19'3 6.5
2018-Jan-18 02:30N 34°24' W 120°23'4 7.1
2018-Jan-18 02:00N 34°25' W 120°27'4 7.3
2018-Jan-18 01:30N 34°27' W 120°31'4 7.8
2018-Jan-18 00:58N 34°29' W 120°35'7 7.4
2018-Jan-18 00:00N 34°34' W 120°42'0 7.6
2018-Jan-17 23:57N 34°34' W 120°42'  
2018-Jan-12 15:00N 37°45' W 122°23'0 0.0
2018-Jan-12 14:30N 37°45' W 122°23'0 0.0
2018-Jan-12 14:00N 37°45' W 122°23'0 0.0
2018-Jan-12 13:30N 37°45' W 122°23'0 0.0
2018-Jan-12 13:00N 37°45' W 122°23'0 0.0
2018-Jan-12 12:30N 37°45' W 122°23'0 0.0
2018-Jan-12 12:00N 37°45' W 122°23'0 0.0
2018-Jan-12 11:30N 37°45' W 122°23'0 0.0
2018-Jan-12 11:00N 37°45' W 122°23'0 0.0
2018-Jan-12 10:30N 37°45' W 122°23'0 0.0
2018-Jan-12 10:00N 37°45' W 122°23'0 0.0
2018-Jan-12 09:30N 37°45' W 122°23'0 0.0
2018-Jan-12 09:00N 37°45' W 122°23'0 0.0
2018-Jan-12 08:30N 37°45' W 122°23'0 0.0
2018-Jan-12 08:00N 37°45' W 122°23'0 0.0
2018-Jan-12 07:30N 37°45' W 122°23'0 0.0
2018-Jan-12 07:00N 37°45' W 122°23'0 0.0
2018-Jan-12 06:30N 37°45' W 122°23'0 0.0
2018-Jan-12 06:00N 37°45' W 122°23'0 0.0
2018-Jan-12 05:30N 37°45' W 122°23'0 0.0
2018-Jan-12 05:00N 37°45' W 122°23'0 0.0
2018-Jan-12 04:30N 37°45' W 122°23'0 0.0
2018-Jan-12 04:00N 37°45' W 122°23'0 0.0
2018-Jan-12 03:30N 37°45' W 122°23'0 0.0
2018-Jan-12 03:00N 37°45' W 122°23'0 0.0
2018-Jan-12 02:30N 37°45' W 122°23'0 0.0
2018-Jan-12 02:00N 37°45' W 122°23'0 0.0
2018-Jan-12 01:30N 37°45' W 122°23'0 0.0
2018-Jan-12 01:00N 37°45' W 122°23'0 0.0
2018-Jan-12 00:30N 37°45' W 122°23'0 0.0
2018-Jan-12 00:00N 37°45' W 122°23'0 0.0
2018-Jan-11 23:30N 37°45' W 122°23'0 0.0
2018-Jan-11 23:00N 37°45' W 122°23'0 0.0
2018-Jan-11 22:30N 37°45' W 122°23'0 0.0
2018-Jan-11 22:00N 37°45' W 122°23'0 0.0
2018-Jan-11 21:30N 37°45' W 122°23'0 0.0
2018-Jan-11 21:00N 37°45' W 122°23'0 0.0
2018-Jan-11 20:30N 37°45' W 122°23'0 0.0
2018-Jan-11 20:00N 37°45' W 122°23'0 0.0
2018-Jan-11 19:30N 37°45' W 122°23'0 0.0
2018-Jan-11 19:00N 37°45' W 122°23'0 0.0
2018-Jan-11 18:30N 37°45' W 122°23'0 0.0
2018-Jan-11 18:00N 37°45' W 122°23'0 0.0
2018-Jan-11 17:30N 37°45' W 122°23'0 0.0
2018-Jan-11 17:00N 37°45' W 122°23'0 0.0
2018-Jan-11 16:30N 37°45' W 122°23'0 0.0
2018-Jan-11 16:00N 37°45' W 122°23'0 0.0
2018-Jan-11 15:30N 37°45' W 122°23'0 0.0
2018-Jan-11 15:00N 37°45' W 122°23'0 0.0
2018-Jan-11 14:30N 37°45' W 122°23'0 0.0
2018-Jan-11 14:00N 37°45' W 122°23'0 0.0
2018-Jan-11 13:30N 37°45' W 122°23'0 0.0
2018-Jan-11 13:00N 37°45' W 122°23'0 0.0
2018-Jan-11 12:30N 37°45' W 122°23'0 0.0
2018-Jan-11 12:00N 37°45' W 122°23'0 0.0
2018-Jan-11 11:30N 37°45' W 122°23'0 0.0
2018-Jan-11 11:00N 37°45' W 122°23'0 0.0
2018-Jan-11 10:30N 37°45' W 122°23'0 0.0
2018-Jan-11 10:00N 37°45' W 122°23'0 0.0
2018-Jan-11 09:30N 37°45' W 122°23'0 0.0
2018-Jan-11 09:00N 37°45' W 122°23'0 0.0
2018-Jan-11 08:30N 37°45' W 122°23'0 0.0
2018-Jan-11 08:00N 37°45' W 122°23'0 0.0
2018-Jan-11 07:31N 37°45' W 122°23'0 0.0
2018-Jan-11 07:00N 37°45' W 122°23'0 0.0
2018-Jan-11 06:30N 37°45' W 122°23'0 0.0
2018-Jan-11 06:01N 37°45' W 122°23'0 0.0
2018-Jan-11 05:30N 37°45' W 122°23'0 0.0
2018-Jan-11 05:00N 37°45' W 122°23'0 0.0
2018-Jan-11 04:30N 37°45' W 122°23'0 0.0
2018-Jan-11 04:00N 37°45' W 122°23'0 0.0
2018-Jan-11 03:30N 37°45' W 122°23'0 0.0
2018-Jan-11 03:00N 37°45' W 122°23'0 0.0
2018-Jan-11 02:30N 37°45' W 122°23'0 0.0
2018-Jan-11 02:00N 37°45' W 122°23'0 0.0
2018-Jan-11 01:30N 37°45' W 122°23'0 0.0
2018-Jan-11 01:00N 37°45' W 122°23'0 0.0
2018-Jan-11 00:30N 37°45' W 122°23'0 0.0
2018-Jan-11 00:00N 37°45' W 122°23'0 0.0
2018-Jan-10 23:30N 37°45' W 122°23'0 0.0
2018-Jan-10 23:00N 37°45' W 122°23'0 0.0
2018-Jan-10 22:30N 37°45' W 122°23'0 0.0
2018-Jan-10 22:00N 37°45' W 122°23'0 0.0
2018-Jan-10 21:30N 37°45' W 122°23'0 0.0
2018-Jan-10 21:00N 37°45' W 122°23'0 0.0
2018-Jan-10 20:30N 37°45' W 122°23'0 0.0
2018-Jan-10 20:01N 37°45' W 122°23'0 0.0
2018-Jan-10 19:31N 37°45' W 122°23'0 0.0
2018-Jan-10 19:00N 37°45' W 122°23'0 0.0
2018-Jan-10 18:30N 37°45' W 122°23'0 0.0
2018-Jan-10 18:00N 37°45' W 122°23'0 0.0
2018-Jan-10 17:30N 37°45' W 122°23'0 0.0
2018-Jan-10 17:00N 37°45' W 122°23'0 0.0
2018-Jan-10 16:30N 37°45' W 122°23'0 0.0
2018-Jan-10 16:00N 37°45' W 122°23'0 0.0
2018-Jan-10 15:30N 37°45' W 122°23'0 0.1
2018-Jan-10 15:00N 37°45' W 122°23'0 0.0
2018-Jan-10 14:31N 37°45' W 122°23'0 0.0
2018-Jan-10 14:00N 37°45' W 122°23'0 0.0
2018-Jan-10 13:30N 37°45' W 122°23'0 0.0
2018-Jan-10 13:00N 37°45' W 122°23'0 0.0
2018-Jan-10 12:31N 37°45' W 122°23'0 0.0
2018-Jan-10 12:01N 37°45' W 122°23'0 0.0
2018-Jan-10 11:30N 37°45' W 122°23'0 0.0
2018-Jan-10 11:01N 37°45' W 122°23'0 0.0
2018-Jan-10 10:30N 37°45' W 122°23'0 0.0
2018-Jan-10 10:00N 37°45' W 122°23'0 0.0
2018-Jan-10 09:31N 37°45' W 122°23'0 0.0
2018-Jan-10 09:00N 37°45' W 122°23'0 0.0
2018-Jan-10 08:30N 37°45' W 122°23'0 0.0
2018-Jan-10 08:01N 37°45' W 122°23'0 0.0
2018-Jan-10 07:30N 37°45' W 122°23'0 0.0
2018-Jan-10 07:00N 37°45' W 122°23'0 0.0
2018-Jan-10 06:30N 37°45' W 122°23'0 0.0
2018-Jan-10 06:00N 37°45' W 122°23'0 0.0
2018-Jan-10 05:30N 37°45' W 122°23'0 0.0
2018-Jan-10 05:00N 37°45' W 122°23'0 0.0
2018-Jan-10 04:30N 37°45' W 122°23'0 0.0
2018-Jan-10 04:00N 37°45' W 122°23'0 0.0
2018-Jan-10 03:30N 37°45' W 122°23'0 0.0
2018-Jan-10 03:00N 37°45' W 122°23'0 0.0
2018-Jan-10 02:30N 37°45' W 122°23'0 0.0
2018-Jan-10 02:00N 37°45' W 122°23'0 0.0
2018-Jan-10 01:30N 37°45' W 122°23'0 0.0
2018-Jan-10 01:01N 37°45' W 122°23'0 0.0
2018-Jan-10 00:30N 37°45' W 122°23'0 0.0
2018-Jan-10 00:01N 37°45' W 122°23'0 0.0
2018-Jan-09 23:30N 37°45' W 122°23'0 0.0
2018-Jan-09 23:00N 37°45' W 122°23'0 0.0
2018-Jan-09 22:30N 37°45' W 122°23'0 0.0
2018-Jan-09 22:01N 37°45' W 122°23'0 0.0
2018-Jan-09 21:30N 37°45' W 122°23'0 0.0
2018-Jan-09 21:01N 37°45' W 122°23'0 0.0
2018-Jan-09 20:31N 37°45' W 122°23'0 0.0
2018-Jan-09 20:00N 37°45' W 122°23'0 0.0
2018-Jan-09 19:30N 37°45' W 122°23'0 0.0
2018-Jan-09 19:00N 37°45' W 122°23'0 0.0
2018-Jan-09 18:30N 37°45' W 122°23'0 0.0
2018-Jan-09 18:01N 37°45' W 122°23'0 0.0
2018-Jan-09 17:30N 37°45' W 122°23'0 0.0
2018-Jan-09 17:00N 37°45' W 122°23'0 0.0
2018-Jan-09 16:30N 37°45' W 122°23'0 0.0
2018-Jan-09 16:01N 37°45' W 122°23'0 0.0
2018-Jan-09 15:31N 37°45' W 122°23'0 0.0
2018-Jan-09 15:00N 37°45' W 122°23'0 0.0
2018-Jan-09 14:31N 37°45' W 122°23'0 0.0
2018-Jan-09 14:00N 37°45' W 122°23'0 0.0
2018-Jan-09 13:30N 37°45' W 122°23'0 0.0
2018-Jan-09 13:01N 37°45' W 122°23'0 0.0
2018-Jan-09 12:30N 37°45' W 122°23'0 0.0
2018-Jan-09 12:00N 37°45' W 122°23'0 0.0
2018-Jan-09 11:30N 37°45' W 122°23'0 0.0
2018-Jan-09 11:00N 37°45' W 122°23'0 0.0
2018-Jan-09 10:30N 37°45' W 122°23'0 0.0
2018-Jan-09 10:00N 37°45' W 122°23'0 0.0
2018-Jan-09 09:30N 37°45' W 122°23'0 0.0
2018-Jan-09 09:00N 37°45' W 122°23'0 0.0
2018-Jan-09 08:30N 37°45' W 122°23'0 0.0
2018-Jan-09 08:00N 37°45' W 122°23'0 0.0
2018-Jan-09 07:30N 37°45' W 122°23'0 0.0
2018-Jan-09 07:00N 37°45' W 122°23'0 0.0
2018-Jan-09 06:30N 37°45' W 122°23'0 0.0
2018-Jan-09 06:00N 37°45' W 122°23'0 0.0
2018-Jan-09 05:30N 37°45' W 122°23'0 0.0
2018-Jan-09 05:00N 37°45' W 122°23'0 0.0
2018-Jan-09 04:30N 37°45' W 122°23'0 0.0
2018-Jan-09 04:00N 37°45' W 122°23'0 0.0
2018-Jan-09 03:30N 37°45' W 122°23'0 0.0
2018-Jan-09 03:00N 37°45' W 122°23'0 0.0
2018-Jan-09 02:30N 37°45' W 122°23'0 0.0
2018-Jan-09 02:01N 37°45' W 122°23'0 0.0
2018-Jan-09 01:30N 37°45' W 122°23'0 0.0
2018-Jan-09 01:00N 37°45' W 122°23'0 0.0
2018-Jan-09 00:31N 37°45' W 122°23'  
Track history (hours):
 
Tides and Currents Weather Stations Pressure Air Temp Water Temp Dewpoint Dewpoint Depression Visibility Wind Speed Wind Dir Waves Ship Positions

Rv Quinn Delta

Owner: GREGG DRILLING & TESTING, INC., SIGNAL HILL, CA. More information available from US FCC via Universal Licensing System and Coast Guard Vessel Documentation Center.

Last reported at 2018-Jan-19 00:06 UTC. Time now 2018-Jan-19 09:25 UTC.
Position N 33°43' W 118°17'.

Length 31 m; draft 2 m.

Type: Other ship. MMSI: 367019310.

Date/timePositionNaut miles runAvg speedWind from/ knotsBaromVisibWave heightAir tempDewpointWater temp
2018-Jan-19 00:06N 33°43' W 118°17'0 0.0
2018-Jan-19 00:00N 33°43' W 118°17'0 0.0
2018-Jan-18 23:30N 33°43' W 118°17'0 0.0
2018-Jan-18 23:00N 33°43' W 118°17'0 0.0
2018-Jan-18 22:30N 33°43' W 118°17'0 0.0
2018-Jan-18 21:30N 33°43' W 118°17'0 0.0
2018-Jan-18 21:00N 33°43' W 118°17'4 1.6
2018-Jan-18 18:39N 33°43' W 118°21'1 6.6
2018-Jan-18 18:29N 33°43' W 118°23'4 7.3
2018-Jan-18 17:59N 33°44' W 118°27'3 7.1
2018-Jan-18 17:30N 33°46' W 118°30'4 7.2
2018-Jan-18 16:53N 33°48' W 118°35'3 7.2
2018-Jan-18 16:29N 33°50' W 118°38'4 7.0
2018-Jan-18 15:59N 33°51' W 118°42'3 7.0
2018-Jan-18 15:30N 33°53' W 118°45'3 6.9
2018-Jan-18 15:00N 33°54' W 118°49'4 7.2
2018-Jan-18 14:30N 33°56' W 118°53'4 6.9
2018-Jan-18 13:55N 33°58' W 118°57'3 6.9
2018-Jan-18 13:26N 33°60' W 119°01'3 6.9
2018-Jan-18 13:00N 34°01' W 119°04'4 7.2
2018-Jan-18 12:30N 34°03' W 119°08'4 7.1
2018-Jan-18 12:00N 34°04' W 119°11'4 7.1
2018-Jan-18 11:30N 34°06' W 119°15'5 7.0
2018-Jan-18 10:49N 34°08' W 119°21'2 7.1
2018-Jan-18 10:28N 34°08' W 119°24'3 7.0
2018-Jan-18 10:00N 34°09' W 119°27'3 6.7
2018-Jan-18 09:30N 34°10' W 119°31'3 6.5
2018-Jan-18 09:00N 34°11' W 119°35'3 6.3
2018-Jan-18 08:27N 34°12' W 119°39'3 6.2
2018-Jan-18 08:00N 34°13' W 119°42'4 6.4
2018-Jan-18 07:22N 34°15' W 119°47'3 6.4
2018-Jan-18 06:58N 34°16' W 119°49'3 6.6
2018-Jan-18 06:27N 34°17' W 119°53'3 6.8
2018-Jan-18 05:59N 34°18' W 119°57'3 6.6
2018-Jan-18 05:30N 34°19' W 120°01'4 6.4
2018-Jan-18 04:55N 34°20' W 120°05'3 6.2
2018-Jan-18 04:30N 34°21' W 120°08'3 6.2
2018-Jan-18 03:58N 34°22' W 120°12'3 6.5
2018-Jan-18 03:29N 34°22' W 120°16'3 6.4
2018-Jan-18 02:59N 34°23' W 120°19'3 6.5
2018-Jan-18 02:30N 34°24' W 120°23'4 7.1
2018-Jan-18 02:00N 34°25' W 120°27'4 7.3
2018-Jan-18 01:30N 34°27' W 120°31'4 7.8
2018-Jan-18 00:58N 34°29' W 120°35'7 7.4
2018-Jan-18 00:00N 34°34' W 120°42'0 7.6
2018-Jan-17 23:57N 34°34' W 120°42'  
2018-Jan-12 15:00N 37°45' W 122°23'0 0.0
2018-Jan-12 14:30N 37°45' W 122°23'0 0.0
2018-Jan-12 14:00N 37°45' W 122°23'0 0.0
2018-Jan-12 13:30N 37°45' W 122°23'0 0.0
2018-Jan-12 13:00N 37°45' W 122°23'0 0.0
2018-Jan-12 12:30N 37°45' W 122°23'0 0.0
2018-Jan-12 12:00N 37°45' W 122°23'0 0.0
2018-Jan-12 11:30N 37°45' W 122°23'0 0.0
2018-Jan-12 11:00N 37°45' W 122°23'0 0.0
2018-Jan-12 10:30N 37°45' W 122°23'0 0.0
2018-Jan-12 10:00N 37°45' W 122°23'0 0.0
2018-Jan-12 09:30N 37°45' W 122°23'0 0.0
2018-Jan-12 09:00N 37°45' W 122°23'0 0.0
2018-Jan-12 08:30N 37°45' W 122°23'0 0.0
2018-Jan-12 08:00N 37°45' W 122°23'0 0.0
2018-Jan-12 07:30N 37°45' W 122°23'0 0.0
2018-Jan-12 07:00N 37°45' W 122°23'0 0.0
2018-Jan-12 06:30N 37°45' W 122°23'0 0.0
2018-Jan-12 06:00N 37°45' W 122°23'0 0.0
2018-Jan-12 05:30N 37°45' W 122°23'0 0.0
2018-Jan-12 05:00N 37°45' W 122°23'0 0.0
2018-Jan-12 04:30N 37°45' W 122°23'0 0.0
2018-Jan-12 04:00N 37°45' W 122°23'0 0.0
2018-Jan-12 03:30N 37°45' W 122°23'0 0.0
2018-Jan-12 03:00N 37°45' W 122°23'0 0.0
2018-Jan-12 02:30N 37°45' W 122°23'0 0.0
2018-Jan-12 02:00N 37°45' W 122°23'0 0.0
2018-Jan-12 01:30N 37°45' W 122°23'0 0.0
2018-Jan-12 01:00N 37°45' W 122°23'0 0.0
2018-Jan-12 00:30N 37°45' W 122°23'0 0.0
2018-Jan-12 00:00N 37°45' W 122°23'0 0.0
2018-Jan-11 23:30N 37°45' W 122°23'0 0.0
2018-Jan-11 23:00N 37°45' W 122°23'0 0.0
2018-Jan-11 22:30N 37°45' W 122°23'0 0.0
2018-Jan-11 22:00N 37°45' W 122°23'0 0.0
2018-Jan-11 21:30N 37°45' W 122°23'0 0.0
2018-Jan-11 21:00N 37°45' W 122°23'0 0.0
2018-Jan-11 20:30N 37°45' W 122°23'0 0.0
2018-Jan-11 20:00N 37°45' W 122°23'0 0.0
2018-Jan-11 19:30N 37°45' W 122°23'0 0.0
2018-Jan-11 19:00N 37°45' W 122°23'0 0.0
2018-Jan-11 18:30N 37°45' W 122°23'0 0.0
2018-Jan-11 18:00N 37°45' W 122°23'0 0.0
2018-Jan-11 17:30N 37°45' W 122°23'0 0.0
2018-Jan-11 17:00N 37°45' W 122°23'0 0.0
2018-Jan-11 16:30N 37°45' W 122°23'0 0.0
2018-Jan-11 16:00N 37°45' W 122°23'0 0.0
2018-Jan-11 15:30N 37°45' W 122°23'0 0.0
2018-Jan-11 15:00N 37°45' W 122°23'0 0.0
2018-Jan-11 14:30N 37°45' W 122°23'0 0.0
2018-Jan-11 14:00N 37°45' W 122°23'0 0.0
2018-Jan-11 13:30N 37°45' W 122°23'0 0.0
2018-Jan-11 13:00N 37°45' W 122°23'0 0.0
2018-Jan-11 12:30N 37°45' W 122°23'0 0.0
2018-Jan-11 12:00N 37°45' W 122°23'0 0.0
2018-Jan-11 11:30N 37°45' W 122°23'0 0.0
2018-Jan-11 11:00N 37°45' W 122°23'0 0.0
2018-Jan-11 10:30N 37°45' W 122°23'0 0.0
2018-Jan-11 10:00N 37°45' W 122°23'0 0.0
2018-Jan-11 09:30N 37°45' W 122°23'0 0.0
2018-Jan-11 09:00N 37°45' W 122°23'0 0.0
2018-Jan-11 08:30N 37°45' W 122°23'0 0.0
2018-Jan-11 08:00N 37°45' W 122°23'0 0.0
2018-Jan-11 07:31N 37°45' W 122°23'0 0.0
2018-Jan-11 07:00N 37°45' W 122°23'0 0.0
2018-Jan-11 06:30N 37°45' W 122°23'0 0.0
2018-Jan-11 06:01N 37°45' W 122°23'0 0.0
2018-Jan-11 05:30N 37°45' W 122°23'0 0.0
2018-Jan-11 05:00N 37°45' W 122°23'0 0.0
2018-Jan-11 04:30N 37°45' W 122°23'0 0.0
2018-Jan-11 04:00N 37°45' W 122°23'0 0.0
2018-Jan-11 03:30N 37°45' W 122°23'0 0.0
2018-Jan-11 03:00N 37°45' W 122°23'0 0.0
2018-Jan-11 02:30N 37°45' W 122°23'0 0.0
2018-Jan-11 02:00N 37°45' W 122°23'0 0.0
2018-Jan-11 01:30N 37°45' W 122°23'0 0.0
2018-Jan-11 01:00N 37°45' W 122°23'0 0.0
2018-Jan-11 00:30N 37°45' W 122°23'0 0.0
2018-Jan-11 00:00N 37°45' W 122°23'0 0.0
2018-Jan-10 23:30N 37°45' W 122°23'0 0.0
2018-Jan-10 23:00N 37°45' W 122°23'0 0.0
2018-Jan-10 22:30N 37°45' W 122°23'0 0.0
2018-Jan-10 22:00N 37°45' W 122°23'0 0.0
2018-Jan-10 21:30N 37°45' W 122°23'0 0.0
2018-Jan-10 21:00N 37°45' W 122°23'0 0.0
2018-Jan-10 20:30N 37°45' W 122°23'0 0.0
2018-Jan-10 20:01N 37°45' W 122°23'0 0.0
2018-Jan-10 19:31N 37°45' W 122°23'0 0.0
2018-Jan-10 19:00N 37°45' W 122°23'0 0.0
2018-Jan-10 18:30N 37°45' W 122°23'0 0.0
2018-Jan-10 18:00N 37°45' W 122°23'0 0.0
2018-Jan-10 17:30N 37°45' W 122°23'0 0.0
2018-Jan-10 17:00N 37°45' W 122°23'0 0.0
2018-Jan-10 16:30N 37°45' W 122°23'0 0.0
2018-Jan-10 16:00N 37°45' W 122°23'0 0.0
2018-Jan-10 15:30N 37°45' W 122°23'0 0.1
2018-Jan-10 15:00N 37°45' W 122°23'0 0.0
2018-Jan-10 14:31N 37°45' W 122°23'0 0.0
2018-Jan-10 14:00N 37°45' W 122°23'0 0.0
2018-Jan-10 13:30N 37°45' W 122°23'0 0.0
2018-Jan-10 13:00N 37°45' W 122°23'0 0.0
2018-Jan-10 12:31N 37°45' W 122°23'0 0.0
2018-Jan-10 12:01N 37°45' W 122°23'0 0.0
2018-Jan-10 11:30N 37°45' W 122°23'0 0.0
2018-Jan-10 11:01N 37°45' W 122°23'0 0.0
2018-Jan-10 10:30N 37°45' W 122°23'0 0.0
2018-Jan-10 10:00N 37°45' W 122°23'0 0.0
2018-Jan-10 09:31N 37°45' W 122°23'0 0.0
2018-Jan-10 09:00N 37°45' W 122°23'0 0.0
2018-Jan-10 08:30N 37°45' W 122°23'0 0.0
2018-Jan-10 08:01N 37°45' W 122°23'0 0.0
2018-Jan-10 07:30N 37°45' W 122°23'0 0.0
2018-Jan-10 07:00N 37°45' W 122°23'0 0.0
2018-Jan-10 06:30N 37°45' W 122°23'0 0.0
2018-Jan-10 06:00N 37°45' W 122°23'0 0.0
2018-Jan-10 05:30N 37°45' W 122°23'0 0.0
2018-Jan-10 05:00N 37°45' W 122°23'0 0.0
2018-Jan-10 04:30N 37°45' W 122°23'0 0.0
2018-Jan-10 04:00N 37°45' W 122°23'0 0.0
2018-Jan-10 03:30N 37°45' W 122°23'0 0.0
2018-Jan-10 03:00N 37°45' W 122°23'0 0.0
2018-Jan-10 02:30N 37°45' W 122°23'0 0.0
2018-Jan-10 02:00N 37°45' W 122°23'0 0.0
2018-Jan-10 01:30N 37°45' W 122°23'0 0.0
2018-Jan-10 01:01N 37°45' W 122°23'0 0.0
2018-Jan-10 00:30N 37°45' W 122°23'0 0.0
2018-Jan-10 00:01N 37°45' W 122°23'0 0.0
2018-Jan-09 23:30N 37°45' W 122°23'0 0.0
2018-Jan-09 23:00N 37°45' W 122°23'0 0.0
2018-Jan-09 22:30N 37°45' W 122°23'0 0.0
2018-Jan-09 22:01N 37°45' W 122°23'0 0.0
2018-Jan-09 21:30N 37°45' W 122°23'0 0.0
2018-Jan-09 21:01N 37°45' W 122°23'0 0.0
2018-Jan-09 20:31N 37°45' W 122°23'0 0.0
2018-Jan-09 20:00N 37°45' W 122°23'0 0.0
2018-Jan-09 19:30N 37°45' W 122°23'0 0.0
2018-Jan-09 19:00N 37°45' W 122°23'0 0.0
2018-Jan-09 18:30N 37°45' W 122°23'0 0.0
2018-Jan-09 18:01N 37°45' W 122°23'0 0.0
2018-Jan-09 17:30N 37°45' W 122°23'0 0.0
2018-Jan-09 17:00N 37°45' W 122°23'0 0.0
2018-Jan-09 16:30N 37°45' W 122°23'0 0.0
2018-Jan-09 16:01N 37°45' W 122°23'0 0.0
2018-Jan-09 15:31N 37°45' W 122°23'0 0.0
2018-Jan-09 15:00N 37°45' W 122°23'0 0.0
2018-Jan-09 14:31N 37°45' W 122°23'0 0.0
2018-Jan-09 14:00N 37°45' W 122°23'0 0.0
2018-Jan-09 13:30N 37°45' W 122°23'0 0.0
2018-Jan-09 13:01N 37°45' W 122°23'0 0.0
2018-Jan-09 12:30N 37°45' W 122°23'0 0.0
2018-Jan-09 12:00N 37°45' W 122°23'0 0.0
2018-Jan-09 11:30N 37°45' W 122°23'0 0.0
2018-Jan-09 11:00N 37°45' W 122°23'0 0.0
2018-Jan-09 10:30N 37°45' W 122°23'0 0.0
2018-Jan-09 10:00N 37°45' W 122°23'0 0.0
2018-Jan-09 09:30N 37°45' W 122°23'0 0.0
2018-Jan-09 09:00N 37°45' W 122°23'0 0.0
2018-Jan-09 08:30N 37°45' W 122°23'0 0.0
2018-Jan-09 08:00N 37°45' W 122°23'0 0.0
2018-Jan-09 07:30N 37°45' W 122°23'0 0.0
2018-Jan-09 07:00N 37°45' W 122°23'0 0.0
2018-Jan-09 06:30N 37°45' W 122°23'0 0.0
2018-Jan-09 06:00N 37°45' W 122°23'0 0.0
2018-Jan-09 05:30N 37°45' W 122°23'0 0.0
2018-Jan-09 05:00N 37°45' W 122°23'0 0.0
2018-Jan-09 04:30N 37°45' W 122°23'0 0.0
2018-Jan-09 04:00N 37°45' W 122°23'0 0.0
2018-Jan-09 03:30N 37°45' W 122°23'0 0.0
2018-Jan-09 03:00N 37°45' W 122°23'0 0.0
2018-Jan-09 02:30N 37°45' W 122°23'0 0.0
2018-Jan-09 02:01N 37°45' W 122°23'0 0.0
2018-Jan-09 01:30N 37°45' W 122°23'0 0.0
2018-Jan-09 01:00N 37°45' W 122°23'0 0.0
2018-Jan-09 00:31N 37°45' W 122°23'  

Dump ship's entire track history